Time;durP1;ratioP1;P1;durP2;ratioP2;P2;SDS_P1;SDS_P2;PMS_P1;PMS_P2;Temp;Humidity;BMP_temperature;BMP_pressure;BME280_temperature;BME280_humidity;BME280_pressure;Samples;Min_cycle;Max_cycle;Signal;HPM_P1;HPM_P2
2021/12/11 00:00:47;;;;;;;78.50;26.20;;;;;;;-1.47;98.36;99015.63;99877;1330;59618;-69
2021/12/11 00:03:43;;;;;;;67.70;24.30;;;;;;;-1.47;98.35;99015.11;99726;1344;71224;-69
2021/12/11 00:06:40;;;;;;;62.10;24.40;;;;;;;-1.47;98.24;99019.08;99754;1336;66920;-69
2021/12/11 00:09:35;;;;;;;62.40;22.60;;;;;;;-1.48;98.30;99018.77;99769;1337;72122;-69
2021/12/11 00:12:35;;;;;;;78.80;28.20;;;;;;;-1.50;98.48;99026.55;99766;1337;59882;-69
2021/12/11 00:15:37;;;;;;;86.40;29.70;;;;;;;-1.51;98.77;99031.14;99666;1337;60398;-69
2021/12/11 00:18:30;;;;;;;83.70;28.70;;;;;;;-1.49;98.88;99034.35;99975;1339;73751;-69
2021/12/11 00:21:24;;;;;;;77.30;27.70;;;;;;;-1.46;98.78;99037.31;99705;1339;68343;-69
2021/12/11 00:24:26;;;;;;;79.50;26.70;;;;;;;-1.44;98.67;99035.34;99843;1340;71770;-69
2021/12/11 00:27:28;;;;;;;77.50;28.70;;;;;;;-1.48;98.94;99041.74;99991;1339;59750;-69
2021/12/11 00:30:33;;;;;;;79.70;25.60;;;;;;;-1.54;98.99;99043.79;99915;1340;59948;-69
2021/12/11 00:33:31;;;;;;;76.90;27.90;;;;;;;-1.54;99.36;99045.17;99095;1336;1003147;-69
2021/12/11 00:36:24;;;;;;;76.20;28.80;;;;;;;-1.55;99.42;99052.86;99706;1336;68174;-69
2021/12/11 00:39:18;;;;;;;69.00;22.80;;;;;;;-1.54;99.34;99065.17;99821;1339;73472;-69
2021/12/11 00:42:12;;;;;;;63.10;25.00;;;;;;;-1.60;99.05;99067.33;99741;1342;59784;-69
2021/12/11 00:45:13;;;;;;;58.10;20.90;;;;;;;-1.66;98.75;99073.52;99955;1344;59877;-69
2021/12/11 00:48:11;;;;;;;63.10;21.90;;;;;;;-1.73;98.85;99078.66;99898;1339;74014;-69
2021/12/11 00:51:09;;;;;;;56.60;20.90;;;;;;;-1.74;99.00;99082.18;100215;1336;66924;-69
2021/12/11 00:53:59;;;;;;;60.60;22.30;;;;;;;-1.76;99.14;99080.72;99854;1337;71895;-69
2021/12/11 00:56:52;;;;;;;48.50;18.20;;;;;;;-1.78;99.31;99084.47;100129;1339;59876;-70
2021/12/11 00:59:41;;;;;;;61.00;23.60;;;;;;;-1.81;99.52;99091.39;99877;1336;59663;-69
2021/12/11 01:02:30;;;;;;;60.50;22.30;;;;;;;-1.83;99.69;99093.56;99929;1339;71193;-70
2021/12/11 01:05:22;;;;;;;58.50;21.70;;;;;;;-1.82;99.62;99100.65;99917;1340;67593;-69
2021/12/11 01:08:24;;;;;;;60.30;21.60;;;;;;;-1.82;99.77;99102.21;99672;1340;72644;-68
2021/12/11 01:11:21;;;;;;;58.90;21.60;;;;;;;-1.79;99.88;99103.30;99863;1340;59720;-68
2021/12/11 01:14:32;;;;;;;66.30;23.60;;;;;;;-1.75;99.90;99109.55;99920;1339;59724;-69
2021/12/11 01:17:44;;;;;;;51.10;19.10;;;;;;;-1.73;99.81;99112.95;100091;1340;74068;-69
2021/12/11 01:20:49;;;;;;;63.60;22.60;;;;;;;-1.74;99.47;99114.37;99838;1337;67630;-69
2021/12/11 01:23:56;;;;;;;71.30;26.10;;;;;;;-1.74;99.56;99119.43;100060;1340;73412;-70
2021/12/11 01:26:52;;;;;;;61.50;24.10;;;;;;;-1.71;99.61;99124.35;99958;1337;59798;-69
2021/12/11 01:29:44;;;;;;;58.30;23.30;;;;;;;-1.69;99.61;99127.05;99648;1343;59768;-69
2021/12/11 01:32:34;;;;;;;58.90;22.50;;;;;;;-1.71;99.42;99130.06;99687;1337;72284;-70
2021/12/11 01:35:25;;;;;;;56.20;22.00;;;;;;;-1.72;99.33;99132.20;99358;1344;1003050;-69
2021/12/11 01:38:22;;;;;;;61.60;23.20;;;;;;;-1.76;99.45;99131.84;99897;1339;73018;-69
2021/12/11 01:41:20;;;;;;;47.80;18.90;;;;;;;-1.80;99.57;99137.77;100084;1336;59837;-70
2021/12/11 01:44:17;;;;;;;51.80;19.60;;;;;;;-1.84;99.81;99142.81;99725;1340;59785;-69
2021/12/11 01:47:21;;;;;;;46.90;17.10;;;;;;;-1.91;99.85;99138.41;99713;1336;73431;-69
2021/12/11 01:50:32;;;;;;;57.00;22.10;;;;;;;-2.01;100.00;99136.35;99964;1337;67126;-70
2021/12/11 01:53:31;;;;;;;50.70;18.80;;;;;;;-2.05;100.00;99136.67;99823;1339;71773;-70
2021/12/11 01:56:25;;;;;;;52.20;19.00;;;;;;;-2.04;100.00;99136.34;99666;1340;59834;-70
2021/12/11 01:59:26;;;;;;;47.30;17.70;;;;;;;-2.05;100.00;99133.90;99178;1340;1003347;-70
2021/12/11 02:02:25;;;;;;;58.30;22.20;;;;;;;-2.05;100.00;99131.66;99412;1337;1003190;-69
2021/12/11 02:05:22;;;;;;;51.10;17.40;;;;;;;-2.08;100.00;99136.98;99875;1340;66905;-69
2021/12/11 02:08:20;;;;;;;54.30;20.00;;;;;;;-2.11;100.00;99140.42;99890;1339;73259;-69
2021/12/11 02:11:30;;;;;;;39.60;16.40;;;;;;;-2.12;100.00;99146.38;99976;1340;59783;-69
2021/12/11 02:14:26;;;;;;;47.00;17.20;;;;;;;-2.15;100.00;99145.09;99902;1339;60916;-69
2021/12/11 02:17:34;;;;;;;46.80;19.50;;;;;;;-2.16;100.00;99151.05;99717;1343;72654;-69
2021/12/11 02:20:40;;;;;;;54.50;20.10;;;;;;;-2.18;100.00;99155.11;100012;1339;66723;-69
2021/12/11 02:23:30;;;;;;;53.90;20.40;;;;;;;-2.17;100.00;99160.65;99667;1340;71807;-69
2021/12/11 02:26:19;;;;;;;46.10;19.50;;;;;;;-2.14;100.00;99156.72;99918;1343;59828;-70
2021/12/11 02:29:33;;;;;;;41.90;16.40;;;;;;;-2.17;100.00;99162.55;99966;1339;59832;-69
2021/12/11 02:32:39;;;;;;;46.30;17.60;;;;;;;-2.20;100.00;99163.40;99989;1337;73639;-69
2021/12/11 02:35:52;;;;;;;51.80;17.80;;;;;;;-2.19;100.00;99164.21;98977;1339;1003608;-69
2021/12/11 02:39:19;;;;;;;59.40;21.60;;;;;;;-2.18;100.00;99164.50;99822;1340;73423;-69
2021/12/11 02:42:30;;;;;;;52.60;19.20;;;;;;;-2.15;100.00;99168.21;99966;1339;59688;-69
2021/12/11 02:45:32;;;;;;;49.40;18.40;;;;;;;-2.14;100.00;99166.27;100033;1340;60145;-69
2021/12/11 02:48:34;;;;;;;40.30;16.00;;;;;;;-2.19;100.00;99169.60;99711;1345;72075;-69
2021/12/11 02:51:42;;;;;;;57.20;19.50;;;;;;;-2.23;100.00;99169.41;99897;1339;68121;-69
2021/12/11 02:54:45;;;;;;;54.70;19.90;;;;;;;-2.23;100.00;99169.21;99948;1339;71761;-69
2021/12/11 02:57:58;;;;;;;51.60;18.80;;;;;;;-2.20;100.00;99170.00;99932;1339;59985;-70
2021/12/11 03:01:04;;;;;;;45.90;16.50;;;;;;;-2.21;100.00;99173.32;99990;1336;60900;-69
2021/12/11 03:04:28;;;;;;;56.10;21.10;;;;;;;-2.23;100.00;99172.35;100204;1340;73540;-70
2021/12/11 03:07:23;;;;;;;43.20;14.80;;;;;;;-2.23;100.00;99176.52;99719;1337;66917;-69
2021/12/11 03:10:20;;;;;;;43.50;16.40;;;;;;;-2.24;100.00;99172.77;100050;1340;70353;-69
2021/12/11 03:13:11;;;;;;;60.90;23.20;;;;;;;-2.25;100.00;99175.74;99297;1340;1003024;-70
2021/12/11 03:16:02;;;;;;;54.80;20.80;;;;;;;-2.25;100.00;99174.66;99833;1339;60906;-69
2021/12/11 03:18:53;;;;;;;41.90;15.80;;;;;;;-2.24;100.00;99175.85;99994;1339;74577;-69
2021/12/11 03:21:43;;;;;;;48.70;19.70;;;;;;;-2.21;100.00;99183.59;100084;1336;68453;-70
2021/12/11 03:24:33;;;;;;;47.50;17.70;;;;;;;-2.18;100.00;99185.53;99281;1340;1003750;-69
2021/12/11 03:27:23;;;;;;;47.90;17.80;;;;;;;-2.17;100.00;99187.42;99800;1337;59833;-69
2021/12/11 03:30:21;;;;;;;53.20;19.60;;;;;;;-2.19;100.00;99192.35;99794;1337;61265;-69
2021/12/11 03:33:17;;;;;;;61.40;22.40;;;;;;;-2.18;100.00;99196.13;99061;1339;1003660;-70
2021/12/11 03:36:12;;;;;;;59.30;20.40;;;;;;;-2.20;100.00;99201.79;100168;1343;68077;-69
2021/12/11 03:39:09;;;;;;;36.70;12.70;;;;;;;-2.25;100.00;99206.48;99972;1342;72195;-69
2021/12/11 03:42:06;;;;;;;51.50;18.80;;;;;;;-2.29;100.00;99209.25;99967;1336;60531;-70
2021/12/11 03:45:03;;;;;;;40.40;15.10;;;;;;;-2.34;100.00;99211.02;100155;1342;60440;-69
2021/12/11 03:47:59;;;;;;;27.40;9.90;;;;;;;-2.38;100.00;99212.91;99367;1336;1002969;-70
2021/12/11 03:50:51;;;;;;;57.60;20.70;;;;;;;-2.42;100.00;99221.02;99844;1344;67078;-69
2021/12/11 03:53:40;;;;;;;56.90;20.80;;;;;;;-2.40;100.00;99223.91;99831;1337;73516;-70
2021/12/11 03:56:32;;;;;;;56.40;18.10;;;;;;;-2.38;100.00;99228.39;99804;1336;59741;-70
2021/12/11 03:59:21;;;;;;;54.90;18.60;;;;;;;-2.38;100.00;99228.55;100018;1339;59739;-69
2021/12/11 04:02:12;;;;;;;57.40;18.80;;;;;;;-2.39;100.00;99230.64;99676;1343;72255;-70
2021/12/11 04:05:08;;;;;;;42.60;16.80;;;;;;;-2.39;100.00;99232.05;100026;1340;67316;-69
2021/12/11 04:07:57;;;;;;;36.20;13.90;;;;;;;-2.42;100.00;99236.86;100123;1336;73497;-69
2021/12/11 04:10:48;;;;;;;32.40;11.50;;;;;;;-2.45;100.00;99244.44;99930;1342;59745;-70
2021/12/11 04:13:38;;;;;;;55.70;17.90;;;;;;;-2.50;100.00;99244.81;100057;1344;59818;-70
2021/12/11 04:16:28;;;;;;;56.60;20.70;;;;;;;-2.50;100.00;99252.63;99535;1342;73553;-69
2021/12/11 04:19:21;;;;;;;58.20;20.00;;;;;;;-2.50;100.00;99253.98;99719;1339;68141;-70
2021/12/11 04:22:10;;;;;;;42.90;15.70;;;;;;;-2.51;100.00;99255.79;99874;1343;73308;-70
2021/12/11 04:25:00;;;;;;;43.00;14.20;;;;;;;-2.53;100.00;99257.09;99737;1340;59945;-70
2021/12/11 04:27:52;;;;;;;56.90;19.20;;;;;;;-2.58;100.00;99260.89;99780;1339;59837;-70
2021/12/11 04:30:50;;;;;;;33.10;10.90;;;;;;;-2.64;100.00;99256.25;99937;1340;73370;-69
2021/12/11 04:33:44;;;;;;;43.20;15.30;;;;;;;-2.65;100.00;99262.55;99950;1336;66938;-69
2021/12/11 04:36:42;;;;;;;43.30;16.30;;;;;;;-2.69;100.00;99270.33;99651;1343;73509;-69
2021/12/11 04:39:36;;;;;;;44.60;17.30;;;;;;;-2.75;100.00;99271.02;99889;1337;59776;-69
2021/12/11 04:45:33;;;;;;;41.00;15.00;;;;;;;-2.80;100.00;99267.73;99845;1339;73146;-69
2021/12/11 04:49:19;;;;;;;45.50;16.70;;;;;;;-2.82;100.00;99266.44;99990;1339;66691;-69
2021/12/11 04:52:18;;;;;;;33.70;11.60;;;;;;;-2.83;100.00;99264.21;99621;1339;72178;-69
2021/12/11 04:55:29;;;;;;;37.40;11.80;;;;;;;-2.84;100.00;99265.11;99610;1343;59754;-69
2021/12/11 04:58:54;;;;;;;35.70;13.00;;;;;;;-2.87;100.00;99267.81;99950;1344;60227;-69
2021/12/11 05:07:43;;;;;;;43.10;14.60;;;;;;;-3.01;100.00;99286.20;99487;1339;1002982;-71
2021/12/11 05:10:50;;;;;;;35.30;12.30;;;;;;;-3.05;100.00;99284.95;100274;1340;59818;-71
2021/12/11 05:13:40;;;;;;;28.80;9.70;;;;;;;-3.03;100.00;99289.05;100113;1339;61052;-70
2021/12/11 05:16:29;;;;;;;43.20;15.00;;;;;;;-3.03;100.00;99288.89;100454;1337;73658;-71
2021/12/11 05:19:21;;;;;;;39.00;14.00;;;;;;;-3.01;100.00;99295.23;100104;1337;68295;-71
2021/12/11 05:22:11;;;;;;;36.70;12.40;;;;;;;-3.02;100.00;99294.39;99955;1343;71764;-71
2021/12/11 05:25:01;;;;;;;40.80;14.00;;;;;;;-3.02;100.00;99301.34;99890;1339;59737;-71
2021/12/11 05:27:50;;;;;;;56.40;18.30;;;;;;;-3.02;100.00;99301.51;99954;1340;60728;-71
2021/12/11 05:30:46;;;;;;;50.10;17.30;;;;;;;-2.98;100.00;99300.84;100451;1336;72418;-71
2021/12/11 05:33:37;;;;;;;43.20;16.90;;;;;;;-2.98;100.00;99300.50;100460;1336;380696;-71
2021/12/11 05:36:31;;;;;;;39.00;14.60;;;;;;;-2.99;100.00;99305.41;100167;1336;71774;-71
2021/12/11 05:39:21;;;;;;;38.30;13.80;;;;;;;-2.99;100.00;99309.75;100171;1336;59822;-70
2021/12/11 05:42:10;;;;;;;36.80;13.70;;;;;;;-3.00;100.00;99314.48;99748;1339;60672;-70
2021/12/11 05:45:00;;;;;;;37.50;13.10;;;;;;;-3.03;100.00;99314.73;100079;1336;72246;-72
2021/12/11 05:47:49;;;;;;;38.80;14.40;;;;;;;-3.11;100.00;99315.35;100329;1336;67093;-70
2021/12/11 05:50:50;;;;;;;55.00;18.00;;;;;;;-3.21;100.00;99320.20;100183;1342;72799;-71
2021/12/11 05:53:40;;;;;;;44.50;14.50;;;;;;;-3.22;100.00;99324.55;100087;1339;59798;-70
2021/12/11 05:56:34;;;;;;;34.50;11.80;;;;;;;-3.21;100.00;99328.87;100180;1336;59754;-71
2021/12/11 05:59:23;;;;;;;34.40;13.00;;;;;;;-3.26;100.00;99325.72;100153;1343;73583;-71
2021/12/11 06:02:19;;;;;;;37.00;13.50;;;;;;;-3.30;100.00;99329.33;100167;1336;66722;-71
2021/12/11 06:05:10;;;;;;;32.40;12.10;;;;;;;-3.38;100.00;99336.87;100036;1342;73893;-71
2021/12/11 06:08:00;;;;;;;39.20;14.10;;;;;;;-3.48;100.00;99343.95;99755;1339;59756;-72
2021/12/11 06:10:49;;;;;;;39.20;13.90;;;;;;;-3.49;100.00;99347.64;100099;1336;61044;-71
2021/12/11 06:13:38;;;;;;;36.60;12.50;;;;;;;-3.50;100.00;99351.67;100125;1338;73552;-70
2021/12/11 06:16:28;;;;;;;35.20;12.70;;;;;;;-3.52;100.00;99352.06;100034;1343;66804;-71
2021/12/11 06:19:21;;;;;;;43.40;15.80;;;;;;;-3.49;100.00;99360.13;99565;1336;1003902;-70
2021/12/11 06:22:12;;;;;;;41.70;15.00;;;;;;;-3.49;100.00;99362.73;100432;1343;59726;-70
2021/12/11 06:25:09;;;;;;;38.90;13.70;;;;;;;-3.55;100.00;99368.81;100083;1336;60493;-72
2021/12/11 06:27:58;;;;;;;48.00;16.60;;;;;;;-3.58;100.00;99367.70;100326;1336;72253;-71
2021/12/11 06:30:47;;;;;;;43.50;15.90;;;;;;;-3.56;100.00;99374.05;100312;1344;65357;-71
2021/12/11 06:33:36;;;;;;;38.80;14.10;;;;;;;-3.56;100.00;99372.13;99135;1337;1003171;-71
2021/12/11 06:36:29;;;;;;;38.40;14.40;;;;;;;-3.55;100.00;99376.46;100454;1337;59781;-72
2021/12/11 06:39:23;;;;;;;34.90;12.40;;;;;;;-3.54;100.00;99380.05;100021;1339;60443;-72
2021/12/11 06:42:12;;;;;;;33.60;11.70;;;;;;;-3.51;100.00;99384.29;100296;1343;73592;-71
2021/12/11 06:45:01;;;;;;;48.70;15.50;;;;;;;-3.52;100.00;99391.44;100036;1336;68009;-72
2021/12/11 06:47:51;;;;;;;41.10;14.20;;;;;;;-3.56;100.00;99397.80;100227;1340;73113;-71
2021/12/11 06:50:41;;;;;;;36.40;13.00;;;;;;;-3.62;100.00;99407.52;100280;1343;59968;-71
2021/12/11 06:53:43;;;;;;;30.20;11.40;;;;;;;-3.64;100.00;99415.73;100279;1342;59919;-71
2021/12/11 06:56:36;;;;;;;32.40;12.00;;;;;;;-3.64;100.00;99418.84;99928;1339;73480;-71
2021/12/11 06:59:26;;;;;;;42.10;14.30;;;;;;;-3.62;100.00;99417.38;100220;1337;67249;-71
2021/12/11 07:02:20;;;;;;;33.90;13.10;;;;;;;-3.60;100.00;99414.73;99923;1343;73227;-72
2021/12/11 07:05:09;;;;;;;45.30;15.30;;;;;;;-3.59;100.00;99417.32;100114;1339;60411;-71
2021/12/11 07:07:59;;;;;;;50.80;15.50;;;;;;;-3.63;100.00;99424.02;99929;1340;60709;-71
2021/12/11 07:10:48;;;;;;;56.00;19.00;;;;;;;-3.63;100.00;99435.98;99817;1340;72312;-70
2021/12/11 07:13:42;;;;;;;49.40;16.20;;;;;;;-3.57;100.00;99442.59;100097;1344;66135;-70
2021/12/11 07:16:35;;;;;;;40.70;14.90;;;;;;;-3.53;100.00;99448.34;100001;1343;71008;-70
2021/12/11 07:19:24;;;;;;;34.30;12.30;;;;;;;-3.47;100.00;99454.58;100301;1337;59834;-70
2021/12/11 07:22:18;;;;;;;40.80;15.10;;;;;;;-3.49;100.00;99460.88;99412;1344;1003218;-70
2021/12/11 07:25:52;;;;;;;35.60;12.80;;;;;;;-3.50;100.00;99463.70;99997;1343;72244;-70
2021/12/11 07:28:47;;;;;;;49.80;17.70;;;;;;;-3.51;100.00;99473.27;99407;1345;68396;-71
2021/12/11 07:31:40;;;;;;;45.00;15.00;;;;;;;-3.49;100.00;99470.45;99313;1348;73811;-71
2021/12/11 07:34:33;;;;;;;46.40;17.10;;;;;;;-3.48;100.00;99477.52;99586;1345;59994;-70
2021/12/11 07:37:25;;;;;;;46.70;15.70;;;;;;;-3.48;100.00;99478.03;99595;1351;59760;-71
2021/12/11 07:40:26;;;;;;;40.90;13.60;;;;;;;-3.49;100.00;99485.20;99589;1349;72322;-72
2021/12/11 07:43:25;;;;;;;41.70;13.80;;;;;;;-3.46;100.00;99493.41;99531;1345;68363;-72
2021/12/11 07:46:24;;;;;;;50.20;17.10;;;;;;;-3.45;100.00;99502.05;99520;1345;73948;-71
2021/12/11 07:49:19;;;;;;;53.60;19.30;;;;;;;-3.45;100.00;99507.10;99511;1345;59751;-71
2021/12/11 07:52:16;;;;;;;41.40;15.60;;;;;;;-3.46;100.00;99508.67;99434;1345;59733;-72
2021/12/11 07:55:15;;;;;;;41.70;16.00;;;;;;;-3.48;100.00;99515.00;99526;1348;73168;-70
2021/12/11 07:58:10;;;;;;;36.90;13.60;;;;;;;-3.48;100.00;99513.06;99579;1345;66826;-72
2021/12/11 08:01:08;;;;;;;43.40;15.30;;;;;;;-3.46;100.00;99520.14;99531;1350;71628;-71
2021/12/11 08:04:11;;;;;;;45.70;12.00;;;;;;;-3.45;100.00;99520.44;100107;1344;59822;-72
2021/12/11 08:07:07;;;;;;;36.30;12.80;;;;;;;-3.47;100.00;99530.75;100246;1343;61034;-70
2021/12/11 08:10:10;;;;;;;39.20;13.90;;;;;;;-3.51;100.00;99539.70;100391;1336;73812;-70
2021/12/11 08:13:08;;;;;;;34.20;12.40;;;;;;;-3.52;100.00;99540.41;100338;1342;66995;-71
2021/12/11 08:16:11;;;;;;;39.00;14.90;;;;;;;-3.49;100.00;99543.48;100250;1340;73323;-72
2021/12/11 08:19:09;;;;;;;36.80;14.90;;;;;;;-3.48;100.00;99547.77;100232;1339;60779;-70
2021/12/11 08:22:12;;;;;;;39.80;14.80;;;;;;;-3.47;100.00;99550.16;99323;1342;1003073;-71
2021/12/11 08:25:12;;;;;;;40.60;13.80;;;;;;;-3.38;100.00;99554.79;100371;1342;74025;-71
2021/12/11 08:28:16;;;;;;;41.00;14.40;;;;;;;-3.28;100.00;99558.83;100212;1342;68229;-70
2021/12/11 08:31:14;;;;;;;24.50;9.20;;;;;;;-3.22;100.00;99565.78;100349;1336;73179;-71
2021/12/11 08:34:12;;;;;;;39.30;14.20;;;;;;;-3.24;100.00;99567.04;100414;1337;59788;-72
2021/12/11 08:37:15;;;;;;;43.60;16.80;;;;;;;-3.19;100.00;99568.45;100322;1340;60400;-73
2021/12/11 08:40:20;;;;;;;47.80;16.90;;;;;;;-3.09;100.00;99564.69;100426;1340;72340;-71
2021/12/11 08:43:25;;;;;;;49.60;17.50;;;;;;;-2.97;100.00;99566.42;100113;1335;68344;-71
2021/12/11 08:46:31;;;;;;;38.10;15.40;;;;;;;-2.92;100.00;99572.88;100127;1342;71736;-71
2021/12/11 08:49:38;;;;;;;34.50;12.70;;;;;;;-2.93;100.00;99575.34;100102;1342;59652;-72
2021/12/11 08:52:49;;;;;;;48.30;16.50;;;;;;;-2.89;100.00;99571.58;100213;1342;59769;-72
2021/12/11 08:55:57;;;;;;;55.30;20.40;;;;;;;-2.83;100.00;99572.27;99955;1342;72005;-72
2021/12/11 08:58:56;;;;;;;48.60;16.50;;;;;;;-2.79;100.00;99576.11;100295;1340;68270;-71
2021/12/11 09:02:26;;;;;;;52.70;18.80;;;;;;;-2.79;99.91;99578.71;100110;1342;73231;-71
2021/12/11 09:06:10;;;;;;;41.40;15.00;;;;;;;-2.74;99.96;99576.66;100217;1343;59791;-70
2021/12/11 09:09:28;;;;;;;34.80;13.70;;;;;;;-2.75;99.58;99578.77;100065;1343;60873;-71
2021/12/11 09:12:48;;;;;;;52.20;17.20;;;;;;;-2.80;99.31;99582.39;100189;1340;73100;-74
2021/12/11 09:16:01;;;;;;;38.50;15.10;;;;;;;-2.83;99.03;99587.36;99299;1342;1003830;-72
2021/12/11 09:19:33;;;;;;;49.70;18.20;;;;;;;-2.91;99.13;99584.98;100440;1339;73024;-71
2021/12/11 09:22:46;;;;;;;41.50;15.10;;;;;;;-2.93;99.39;99580.34;100065;1340;59793;-70
2021/12/11 09:26:05;;;;;;;35.50;12.50;;;;;;;-2.87;99.79;99582.80;100314;1341;59713;-71
2021/12/11 09:29:43;;;;;;;52.40;18.30;;;;;;;-2.81;99.67;99582.77;99999;1342;71038;-71
2021/12/11 09:32:55;;;;;;;45.00;15.40;;;;;;;-2.76;99.14;99584.70;99369;1352;67169;-71
2021/12/11 09:36:08;;;;;;;47.80;17.50;;;;;;;-2.67;98.96;99585.13;99555;1351;71689;-72
2021/12/11 09:39:27;;;;;;;41.30;15.40;;;;;;;-2.52;98.86;99587.63;99587;1354;59926;-72
2021/12/11 09:42:27;;;;;;;45.30;17.40;;;;;;;-2.29;98.42;99575.95;99751;1351;60693;-72
2021/12/11 09:45:37;;;;;;;39.10;15.90;;;;;;;-1.93;97.97;99577.52;98836;1351;1003263;-72
2021/12/11 09:48:39;;;;;;;40.30;16.00;;;;;;;-1.66;95.96;99581.13;99681;1349;68400;-71
2021/12/11 09:51:45;;;;;;;40.00;15.90;;;;;;;-1.71;93.31;99579.73;99491;1351;70721;-72
2021/12/11 09:55:36;;;;;;;38.00;15.60;;;;;;;-1.77;92.88;99581.66;99625;1354;59860;-72
2021/12/11 09:58:42;;;;;;;38.90;14.80;;;;;;;-1.79;92.93;99587.84;99760;1351;59707;-72
2021/12/11 10:01:56;;;;;;;54.30;21.50;;;;;;;-1.76;92.99;99584.79;99527;1351;72902;-72
2021/12/11 10:05:35;;;;;;;54.00;22.10;;;;;;;-1.63;92.52;99583.80;99850;1351;68631;-71
2021/12/11 10:08:39;;;;;;;50.50;19.80;;;;;;;-1.17;92.24;99582.33;99130;1353;72302;-72
2021/12/11 10:12:09;;;;;;;50.50;20.80;;;;;;;-0.25;91.89;99580.99;99980;1348;59789;-73
2021/12/11 10:15:20;;;;;;;49.70;20.10;;;;;;;0.98;87.87;99576.09;99734;1346;59651;-73
2021/12/11 10:18:24;;;;;;;48.80;20.80;;;;;;;2.03;86.07;99570.52;99685;1345;73283;-74
2021/12/11 10:21:40;;;;;;;49.50;22.40;;;;;;;2.99;81.94;99571.13;99570;1348;67265;-73
2021/12/11 10:24:52;;;;;;;45.30;19.90;;;;;;;4.28;75.96;99559.67;99598;1345;73366;-73
2021/12/11 10:28:18;;;;;;;38.20;19.00;;;;;;;4.88;72.20;99559.02;99475;1349;59818;-73
2021/12/11 10:31:31;;;;;;;38.80;18.90;;;;;;;5.13;69.97;99564.17;99587;1349;60728;-73
2021/12/11 10:34:42;;;;;;;38.30;19.00;;;;;;;5.48;67.08;99563.35;99786;1345;73693;-73
2021/12/11 10:37:48;;;;;;;40.40;20.90;;;;;;;6.22;64.16;99559.20;99519;1345;68414;-74
2021/12/11 10:41:00;;;;;;;37.70;20.20;;;;;;;7.16;61.46;99552.92;99763;1346;71622;-74
2021/12/11 10:44:37;;;;;;;36.10;19.70;;;;;;;7.82;56.85;99550.40;99820;1339;59729;-73
2021/12/11 10:48:10;;;;;;;39.30;22.50;;;;;;;8.30;53.70;99552.11;100323;1339;59987;-79
2021/12/11 10:51:44;;;;;;;37.10;19.40;;;;;;;8.28;51.54;99557.02;101027;1343;73152;-78
2021/12/11 10:54:48;;;;;;;37.40;19.70;;;;;;;7.92;51.13;99558.84;100242;1340;67359;-79
2021/12/11 10:58:09;;;;;;;36.70;20.80;;;;;;;7.42;52.54;99566.92;100139;1343;71981;-78
2021/12/11 11:01:40;;;;;;;44.60;25.40;;;;;;;6.77;54.43;99571.00;99987;1345;59739;-78
2021/12/11 11:05:08;;;;;;;43.90;21.70;;;;;;;5.87;57.04;99576.66;100085;1342;60760;-71
2021/12/11 11:08:16;;;;;;;45.10;21.40;;;;;;;5.06;58.76;99584.27;99866;1345;73654;-72
2021/12/11 11:11:27;;;;;;;47.80;23.40;;;;;;;3.96;61.06;99586.82;100011;1345;67155;-72
2021/12/11 11:14:41;;;;;;;52.40;24.10;;;;;;;2.99;64.49;99597.62;99785;1344;71967;-72
2021/12/11 11:17:53;;;;;;;53.00;24.80;;;;;;;2.33;67.12;99605.45;99821;1342;59873;-73
2021/12/11 11:21:28;;;;;;;51.10;21.70;;;;;;;1.75;69.08;99616.86;99729;1342;60735;-71
2021/12/11 11:24:37;;;;;;;55.50;22.70;;;;;;;0.96;72.29;99628.58;99964;1342;73438;-71
2021/12/11 11:27:56;;;;;;;51.30;21.90;;;;;;;0.35;74.96;99630.02;99799;1343;68814;-71
2021/12/11 11:31:04;;;;;;;55.70;22.20;;;;;;;-0.16;77.53;99632.95;99582;1349;73128;-71
2021/12/11 11:34:40;;;;;;;53.40;22.00;;;;;;;-0.55;79.71;99635.20;98923;1348;1003127;-71
2021/12/11 11:37:49;;;;;;;53.00;22.50;;;;;;;-0.91;82.07;99643.17;99764;1348;60844;-71
2021/12/11 11:40:55;;;;;;;51.20;20.70;;;;;;;-1.01;82.59;99641.98;99702;1343;73771;-72
2021/12/11 11:44:02;;;;;;;55.20;22.40;;;;;;;-1.15;83.21;99645.47;98859;1345;1004091;-71
2021/12/11 11:47:07;;;;;;;68.10;24.70;;;;;;;-1.32;84.41;99645.55;99552;1343;73180;-71
2021/12/11 11:50:16;;;;;;;67.80;25.80;;;;;;;-1.51;85.87;99647.43;100182;1342;59847;-70
2021/12/11 11:53:24;;;;;;;58.10;22.80;;;;;;;-1.65;86.58;99657.45;99782;1343;60801;-70
2021/12/11 11:56:35;;;;;;;73.80;29.50;;;;;;;-1.77;87.01;99660.13;99773;1342;71748;-71
2021/12/11 11:59:41;;;;;;;58.40;22.10;;;;;;;-1.78;87.68;99666.77;99631;1343;68053;-71
2021/12/11 12:03:03;;;;;;;69.80;27.50;;;;;;;-1.90;88.51;99667.16;99746;1342;71968;-70
2021/12/11 12:06:23;;;;;;;82.00;28.40;;;;;;;-2.00;89.21;99671.48;99438;1350;60012;-72
2021/12/11 12:09:30;;;;;;;78.20;28.40;;;;;;;-2.04;90.53;99676.83;99625;1346;59795;-71
2021/12/11 12:12:22;;;;;;;81.20;30.00;;;;;;;-2.05;90.11;99680.52;99620;1343;74224;-70
2021/12/11 12:15:18;;;;;;;80.20;31.00;;;;;;;-2.01;90.75;99688.39;99739;1346;66788;-71
2021/12/11 12:18:08;;;;;;;75.10;27.00;;;;;;;-2.01;91.16;99689.59;99699;1342;73123;-71
2021/12/11 12:21:01;;;;;;;76.00;29.30;;;;;;;-2.02;91.45;99694.33;99633;1343;59785;-71
2021/12/11 12:23:51;;;;;;;76.50;29.20;;;;;;;-2.03;92.06;99701.14;99843;1342;61267;-70
2021/12/11 12:26:41;;;;;;;66.00;24.70;;;;;;;-2.02;91.88;99708.75;100372;1336;74059;-71
2021/12/11 12:29:31;;;;;;;77.20;28.60;;;;;;;-2.03;92.54;99716.98;99439;1336;1003093;-71
2021/12/11 12:32:29;;;;;;;67.10;25.60;;;;;;;-2.02;92.50;99718.67;100068;1343;72843;-71
2021/12/11 12:35:19;;;;;;;56.40;22.70;;;;;;;-2.03;92.78;99721.48;99961;1337;59760;-70
2021/12/11 12:38:12;;;;;;;55.90;22.00;;;;;;;-2.08;93.05;99729.98;100090;1336;59738;-70
2021/12/11 12:41:30;;;;;;;72.60;27.60;;;;;;;-2.08;93.06;99739.02;100369;1343;72681;-72
2021/12/11 12:44:23;;;;;;;70.80;27.70;;;;;;;-2.08;93.32;99738.33;100237;1340;66866;-71
2021/12/11 12:47:26;;;;;;;62.60;25.60;;;;;;;-2.06;93.38;99737.40;100247;1337;73072;-71
2021/12/11 12:50:33;;;;;;;65.50;23.50;;;;;;;-2.06;93.76;99740.17;99889;1339;59857;-71
2021/12/11 12:53:25;;;;;;;54.00;20.10;;;;;;;-2.07;93.73;99743.52;99887;1336;60873;-72
2021/12/11 12:56:54;;;;;;;58.10;21.70;;;;;;;-2.09;93.83;99748.09;100122;1336;73478;-72
2021/12/11 13:00:39;;;;;;;61.40;25.20;;;;;;;-2.11;93.87;99752.14;100114;1336;68202;-70
2021/12/11 13:03:33;;;;;;;50.10;17.80;;;;;;;-2.18;94.60;99757.58;99858;1343;73029;-71
2021/12/11 13:06:30;;;;;;;58.60;22.00;;;;;;;-2.19;94.66;99760.75;99830;1343;59531;-70
2021/12/11 13:09:31;;;;;;;59.10;22.30;;;;;;;-2.20;95.33;99762.49;99770;1342;60592;-70
2021/12/11 13:12:33;;;;;;;54.70;21.80;;;;;;;-2.15;95.34;99768.11;99495;1349;73938;-71
2021/12/11 13:15:40;;;;;;;58.90;24.90;;;;;;;-2.09;95.49;99769.45;99923;1346;67403;-71
2021/12/11 13:18:33;;;;;;;58.90;22.70;;;;;;;-2.10;95.48;99775.59;99626;1349;71780;-71
2021/12/11 13:21:41;;;;;;;60.50;23.80;;;;;;;-2.12;95.49;99777.73;99502;1345;59741;-72
2021/12/11 13:24:31;;;;;;;59.30;23.90;;;;;;;-2.11;95.53;99780.82;99852;1342;60425;-71
2021/12/11 13:27:24;;;;;;;60.90;22.60;;;;;;;-2.08;95.55;99784.23;99888;1344;71495;-71
2021/12/11 13:30:28;;;;;;;54.90;22.40;;;;;;;-2.06;95.88;99790.94;99965;1348;65500;-71
2021/12/11 13:33:25;;;;;;;50.60;18.80;;;;;;;-2.05;95.83;99790.56;99847;1346;273349;-71
2021/12/11 13:36:21;;;;;;;50.40;20.90;;;;;;;-2.05;95.54;99791.61;99821;1343;59799;-71
2021/12/11 13:39:16;;;;;;;50.90;19.30;;;;;;;-2.06;95.58;99793.70;99736;1342;60886;-71
2021/12/11 13:42:12;;;;;;;51.30;22.10;;;;;;;-2.09;95.70;99795.73;99956;1342;73545;-73
2021/12/11 13:45:11;;;;;;;56.20;22.90;;;;;;;-2.11;95.66;99797.52;100147;1340;68468;-72
2021/12/11 13:48:03;;;;;;;56.00;22.00;;;;;;;-2.12;96.14;99801.55;100327;1336;71523;-72
2021/12/11 13:51:15;;;;;;;58.10;22.20;;;;;;;-2.10;95.96;99807.40;100520;1336;59733;-70
2021/12/11 13:54:14;;;;;;;47.50;19.20;;;;;;;-2.09;95.85;99816.23;100225;1339;60794;-71